Terminal Aerodrome Forecast
Issued by NWS Wilmington, OH

Current Version | Previous Version | Text Only | Print | Product List | Glossary Off
Versions: 1 2 3 4 5 6 7 8 9 10 11 12 13 14 15 16 17 18 19

000
FTUS41 KILN 081121
TAFDAY
TAF
KDAY 081121Z 0812/0912 27014G24KT P6SM BKN022
     FM090000 28012G20KT P6SM OVC020
     FM090600 28012KT P6SM OVC016=

USA.gov is the U.S. government's official web portal to all federal, state and local government web resources and services.